Terminal Aerodrome Forecast
Issued by NWS

Home | Current Version | Previous Version | Text Only | Print | Product List | Glossary On
Versions: 1 2 3 4 5 6 7 8 9 10 11 12 13 14 15 16 17 18 19 20 21 22 23 24 25 26 27 28
000
FTUS42 KCAE 261700
TAFOGB
TAF
KOGB 261734Z 2618/2718 24010G18KT P6SM SCT040 BKN070
     FM270500 21006KT P6SM VCSH BKN040
     FM271000 22006KT 4SM -SHRA BR SCT007 OVC025
     FM271700 28013G20KT 6SM -RA BR OVC015=

USA.gov is the U.S. government's official web portal to all federal, state and local government web resources and services.